createdAt,value
2018-04-19T00:01:18.383Z,4.93
2018-04-19T00:03:46.667Z,5.40
2018-04-19T00:06:14.936Z,3.97
2018-04-19T00:08:43.218Z,5.20
2018-04-19T00:11:11.495Z,5.13
2018-04-19T00:13:39.778Z,4.23
2018-04-19T00:16:08.060Z,5.50
2018-04-19T00:18:36.351Z,4.17
2018-04-19T00:21:04.626Z,4.23
2018-04-19T00:23:32.910Z,3.40
2018-04-19T00:26:01.191Z,3.87
2018-04-19T00:28:29.458Z,3.77
2018-04-19T00:30:57.735Z,4.57
2018-04-19T00:33:26.013Z,4.80
2018-04-19T00:35:54.305Z,4.37
2018-04-19T00:38:22.624Z,4.17
2018-04-19T00:40:51.104Z,4.17
2018-04-19T00:43:19.375Z,3.90
2018-04-19T00:45:47.657Z,4.50
2018-04-19T00:48:15.954Z,3.90
2018-04-19T00:50:44.230Z,4.00
2018-04-19T00:53:12.510Z,3.70
2018-04-19T00:55:40.782Z,4.70
2018-04-19T00:58:09.058Z,3.67
2018-04-19T01:00:37.328Z,4.60
2018-04-19T01:03:05.614Z,3.80
2018-04-19T01:05:33.887Z,4.90
2018-04-19T01:08:02.167Z,5.00
2018-04-19T01:10:30.458Z,5.07
2018-04-19T01:12:58.738Z,4.77
2018-04-19T01:15:27.026Z,4.30
2018-04-19T01:17:55.294Z,4.67
2018-04-19T01:20:23.590Z,4.30
2018-04-19T01:22:51.859Z,5.50
2018-04-19T01:25:20.186Z,4.50
2018-04-19T01:27:48.450Z,4.60
2018-04-19T01:30:16.736Z,5.57
2018-04-19T01:32:45.018Z,4.43
2018-04-19T01:35:13.303Z,4.53
2018-04-19T01:37:41.577Z,4.67
2018-04-19T01:40:09.858Z,6.00
2018-04-19T01:42:38.138Z,4.23
2018-04-19T01:45:06.414Z,4.53
2018-04-19T01:47:34.690Z,4.93
2018-04-19T01:50:03.007Z,5.70
2018-04-19T01:52:31.281Z,4.83
2018-04-19T01:54:59.573Z,5.80
2018-04-19T01:57:27.847Z,4.50
2018-04-19T01:59:56.126Z,5.83
2018-04-19T02:02:24.398Z,6.00
2018-04-19T02:04:52.682Z,6.37
2018-04-19T02:07:20.988Z,6.10
2018-04-19T02:09:49.271Z,5.20
2018-04-19T02:12:19.508Z,5.70
2018-04-19T02:14:47.774Z,5.80
2018-04-19T02:17:16.064Z,6.17
2018-04-19T02:19:44.346Z,6.10
2018-04-19T02:22:12.630Z,6.27
2018-04-19T02:24:40.898Z,5.87
2018-04-19T02:27:09.210Z,7.37
2018-04-19T02:29:37.490Z,7.30
2018-04-19T02:32:05.779Z,6.70
2018-04-19T02:34:34.062Z,6.73
2018-04-19T02:37:02.342Z,6.50
2018-04-19T02:39:30.632Z,7.10
2018-04-19T02:41:58.902Z,6.83
2018-04-19T02:44:27.219Z,8.10
2018-04-19T02:46:55.482Z,7.80
2018-04-19T02:49:23.792Z,7.83
2018-04-19T02:51:52.060Z,7.57
2018-04-19T02:54:20.343Z,8.67
2018-04-19T02:56:48.626Z,7.73
2018-04-19T02:59:16.918Z,7.53
2018-04-19T03:01:45.207Z,7.60
2018-04-19T03:04:13.486Z,7.70
2018-04-19T03:06:41.774Z,8.17
2018-04-19T03:09:10.054Z,7.97
2018-04-19T03:11:38.343Z,7.83
2018-04-19T03:14:06.625Z,7.60
2018-04-19T03:16:34.896Z,7.17
2018-04-19T03:19:03.206Z,7.27
2018-04-19T03:21:31.497Z,7.17
2018-04-19T03:23:59.789Z,7.67
2018-04-19T03:29:25.138Z,7.20
2018-04-19T03:31:53.763Z,7.33
2018-04-19T03:34:22.050Z,6.77
2018-04-19T03:36:50.347Z,6.50
2018-04-19T03:39:18.627Z,7.13
2018-04-19T03:41:47.179Z,6.43
2018-04-19T03:44:15.454Z,6.97
2018-04-19T03:46:43.729Z,8.10
2018-04-19T03:49:12.018Z,7.20
2018-04-19T03:51:40.533Z,7.60
2018-04-19T03:54:08.826Z,7.13
2018-04-19T03:56:37.102Z,7.73
2018-04-19T03:59:05.382Z,6.90
2018-04-19T04:01:33.663Z,8.27
2018-04-19T04:04:01.939Z,8.93
2018-04-19T04:06:30.239Z,7.47
2018-04-19T04:08:58.535Z,8.03
2018-04-19T04:11:26.819Z,7.90
2018-04-19T04:13:55.117Z,8.70
2018-04-19T04:16:35.212Z,8.37
2018-04-19T04:19:15.325Z,8.67
2018-04-19T04:21:55.279Z,8.63
2018-04-19T04:24:23.557Z,9.10
2018-04-19T04:26:51.834Z,8.43
2018-04-19T04:29:20.138Z,9.50
2018-04-19T04:31:48.416Z,9.03
2018-04-19T04:34:16.693Z,9.57
2018-04-19T04:36:44.987Z,9.47
2018-04-19T04:39:13.266Z,9.03
2018-04-19T04:41:41.566Z,10.37
2018-04-19T04:44:09.851Z,9.23
2018-04-19T04:46:38.123Z,10.70
2018-04-19T04:49:06.424Z,10.37
2018-04-19T04:51:34.707Z,10.00
2018-04-19T04:54:03.971Z,9.97
2018-04-19T04:56:32.243Z,9.10
2018-04-19T04:59:00.525Z,9.40
2018-04-19T05:01:28.827Z,10.07
2018-04-19T05:03:57.108Z,9.87
2018-04-19T05:06:25.500Z,10.53
2018-04-19T05:08:53.950Z,9.93
2018-04-19T05:11:22.234Z,9.70
2018-04-19T05:13:50.522Z,9.27
2018-04-19T05:16:19.755Z,10.10
2018-04-19T05:18:48.301Z,11.27
2018-04-19T05:21:16.578Z,9.17
2018-04-19T05:23:44.861Z,9.43
2018-04-19T05:26:13.177Z,11.87
2018-04-19T05:28:41.449Z,10.30
2018-04-19T05:31:13.812Z,10.03
2018-04-19T05:33:42.115Z,11.47
2018-04-19T05:36:10.397Z,10.37
2018-04-19T05:38:38.693Z,11.03
2018-04-19T05:41:08.900Z,10.80
2018-04-19T05:43:37.452Z,10.77
2018-04-19T05:46:05.870Z,10.97
2018-04-19T05:48:34.174Z,10.33
2018-04-19T05:51:02.535Z,11.07
2018-04-19T05:53:30.812Z,11.03
2018-04-19T05:55:59.369Z,10.73
2018-04-19T05:58:27.670Z,10.40
2018-04-19T06:00:56.955Z,10.73
2018-04-19T06:03:25.250Z,11.40
2018-04-19T06:05:54.546Z,10.13
2018-04-19T06:08:22.850Z,11.00
2018-04-19T06:10:51.137Z,11.57
2018-04-19T06:13:19.420Z,11.07
2018-04-19T06:15:47.717Z,10.10
2018-04-19T06:18:16.003Z,10.83
2018-04-19T06:20:44.312Z,10.60
2018-04-19T06:23:13.438Z,10.47
2018-04-19T06:25:41.733Z,10.43
2018-04-19T06:28:10.022Z,10.00
2018-04-19T06:30:38.301Z,10.00
2018-04-19T06:33:06.898Z,10.17
2018-04-19T06:35:35.186Z,10.60
2018-04-19T06:38:03.498Z,10.40
2018-04-19T06:40:31.807Z,9.70
2018-04-19T06:43:01.030Z,9.63
2018-04-19T06:45:29.330Z,9.83
2018-04-19T06:47:57.610Z,10.17
2018-04-19T06:50:25.911Z,9.67
2018-04-19T06:52:54.201Z,8.97
2018-04-19T06:55:22.466Z,9.23
2018-04-19T06:57:50.766Z,8.57
2018-04-19T07:00:19.042Z,8.50
2018-04-19T07:02:47.322Z,7.30
2018-04-19T07:05:15.614Z,8.37
2018-04-19T07:07:43.890Z,8.33
2018-04-19T07:10:12.186Z,8.17
2018-04-19T07:12:40.470Z,7.47
2018-04-19T07:15:08.759Z,7.97
2018-04-19T07:17:37.046Z,7.90
2018-04-19T07:20:05.322Z,7.50
2018-04-19T07:22:33.631Z,7.57
2018-04-19T07:25:01.927Z,6.90
2018-04-19T07:27:30.209Z,7.53
2018-04-19T07:29:58.498Z,7.47
2018-04-19T07:32:26.776Z,7.00
2018-04-19T07:34:55.086Z,6.67
2018-04-19T07:37:23.363Z,6.50
2018-04-19T07:39:51.642Z,6.90
2018-04-19T07:42:19.940Z,7.63
2018-04-19T07:44:48.214Z,6.80
2018-04-19T07:47:16.506Z,6.17
2018-04-19T07:49:44.791Z,6.67
2018-04-19T07:52:13.070Z,5.67
2018-04-19T07:54:41.365Z,5.87
2018-04-19T07:57:09.648Z,6.27
2018-04-19T07:59:37.943Z,6.23
2018-04-19T08:02:06.219Z,5.67
2018-04-19T08:04:34.550Z,5.63
2018-04-19T08:07:02.841Z,5.50
2018-04-19T08:09:31.115Z,5.80
2018-04-19T08:11:59.677Z,5.53
2018-04-19T08:14:27.953Z,5.30
2018-04-19T08:16:56.234Z,5.13
2018-04-19T08:19:24.514Z,5.47
2018-04-19T08:21:52.796Z,5.30
2018-04-19T08:24:21.909Z,5.93
2018-04-19T08:26:50.207Z,5.30
2018-04-19T08:29:18.474Z,5.80
2018-04-19T08:31:46.766Z,5.50
2018-04-19T08:34:15.074Z,5.20
2018-04-19T08:36:43.366Z,5.17
2018-04-19T08:39:11.656Z,5.70
2018-04-19T08:41:39.956Z,5.30
2018-04-19T08:44:08.239Z,5.00
2018-04-19T08:46:36.513Z,5.47
2018-04-19T08:49:04.800Z,5.00
2018-04-19T08:51:33.128Z,5.07
2018-04-19T08:54:01.387Z,5.27
2018-04-19T08:56:29.673Z,5.00
2018-04-19T08:58:57.945Z,4.97
2018-04-19T09:01:26.236Z,5.00
2018-04-19T09:03:54.505Z,5.20
2018-04-19T09:06:22.793Z,4.80
2018-04-19T09:08:51.083Z,4.90
2018-04-19T09:11:19.354Z,4.80
2018-04-19T09:13:47.637Z,4.97
2018-04-19T09:16:15.911Z,4.80
2018-04-19T09:18:44.211Z,5.20
2018-04-19T09:21:12.494Z,4.80
2018-04-19T09:23:40.770Z,4.83
2018-04-19T09:26:09.047Z,4.73
2018-04-19T09:28:37.318Z,5.13
2018-04-19T09:31:05.942Z,4.93
2018-04-19T09:33:34.227Z,4.70
2018-04-19T09:36:02.492Z,5.60
2018-04-19T09:38:30.778Z,4.67
2018-04-19T09:40:59.082Z,4.83
2018-04-19T09:43:27.353Z,5.37
2018-04-19T09:45:55.638Z,5.47
2018-04-19T09:48:23.916Z,5.03
2018-04-19T09:50:52.210Z,5.60
2018-04-19T09:53:20.486Z,5.50
2018-04-19T09:55:48.766Z,5.20
2018-04-19T09:58:17.053Z,5.00
2018-04-19T10:00:45.322Z,4.93
2018-04-19T10:03:18.511Z,5.47
2018-04-19T10:05:47.707Z,5.13
2018-04-19T10:08:15.979Z,5.20
2018-04-19T10:10:44.262Z,5.50
2018-04-19T10:13:12.542Z,5.37
2018-04-19T10:15:40.814Z,5.37
2018-04-19T10:18:09.094Z,5.60
2018-04-19T10:20:37.379Z,5.63
2018-04-19T10:23:05.660Z,5.50
2018-04-19T10:25:33.942Z,5.27
2018-04-19T10:28:02.402Z,5.17
2018-04-19T10:33:28.539Z,5.23
2018-04-19T10:35:56.821Z,5.57
2018-04-19T10:38:25.115Z,5.60
2018-04-19T10:40:53.397Z,5.47
2018-04-19T10:43:21.683Z,5.87
2018-04-19T10:45:49.960Z,5.90
2018-04-19T10:48:18.250Z,5.60
2018-04-19T10:50:46.518Z,5.20
2018-04-19T10:53:14.799Z,5.87
2018-04-19T10:55:43.078Z,5.30
2018-04-19T10:58:11.357Z,5.80
2018-04-19T11:00:39.652Z,5.77
2018-04-19T11:03:07.922Z,5.47
2018-04-19T11:05:36.228Z,5.10
2018-04-19T11:08:04.549Z,5.10
2018-04-19T11:10:32.839Z,5.63
2018-04-19T11:13:02.725Z,6.20
2018-04-19T11:15:31.106Z,5.63
2018-04-19T11:17:59.391Z,5.77
2018-04-19T11:20:27.676Z,5.20
2018-04-19T11:22:55.959Z,5.40
2018-04-19T11:25:24.242Z,5.60
2018-04-19T11:27:52.526Z,5.43
2018-04-19T11:30:20.806Z,5.13
2018-04-19T11:32:50.068Z,5.80
2018-04-19T11:35:18.343Z,6.00
2018-04-19T11:37:46.638Z,5.57
2018-04-19T11:40:14.918Z,5.47
2018-04-19T11:42:44.126Z,5.50
2018-04-19T11:45:13.361Z,4.90
2018-04-19T11:47:41.634Z,5.57
2018-04-19T11:50:09.947Z,5.67
2018-04-19T11:52:40.155Z,5.13
2018-04-19T11:55:08.451Z,5.50
2018-04-19T11:57:36.726Z,5.30
2018-04-19T12:00:06.363Z,5.87
2018-04-19T12:02:34.653Z,5.20
2018-04-19T12:05:02.942Z,4.93
2018-04-19T12:07:31.246Z,5.47
2018-04-19T12:09:59.515Z,5.30
2018-04-19T12:12:27.801Z,5.37
2018-04-19T12:14:56.218Z,5.00
2018-04-19T12:17:24.495Z,5.17
2018-04-19T12:19:52.781Z,4.77
2018-04-19T12:22:21.101Z,5.20
2018-04-19T12:24:49.393Z,4.77
2018-04-19T12:27:17.664Z,4.80
2018-04-19T12:29:45.938Z,5.00
2018-04-19T12:32:14.223Z,4.63
2018-04-19T12:34:42.531Z,5.10
2018-04-19T12:37:10.810Z,4.90
2018-04-19T12:39:39.087Z,5.03
2018-04-19T12:42:07.375Z,5.27
2018-04-19T12:44:35.659Z,4.87
2018-04-19T12:47:03.942Z,4.77
2018-04-19T12:49:32.210Z,4.40
2018-04-19T12:52:00.490Z,4.60
2018-04-19T12:54:28.776Z,4.37
2018-04-19T12:56:57.052Z,4.50
2018-04-19T12:59:25.342Z,4.50
2018-04-19T13:01:53.954Z,4.50
2018-04-19T13:04:22.234Z,4.10
2018-04-19T13:06:50.509Z,4.40
2018-04-19T13:09:18.855Z,4.60
2018-04-19T13:11:47.134Z,3.97
2018-04-19T13:14:15.414Z,4.23
2018-04-19T13:16:43.710Z,4.00
2018-04-19T13:19:11.991Z,3.90
2018-04-19T13:21:40.287Z,3.60
2018-04-19T13:24:08.567Z,3.87
2018-04-19T13:26:37.114Z,3.60
2018-04-19T13:29:05.407Z,3.90
2018-04-19T13:31:33.679Z,3.83
2018-04-19T13:34:02.594Z,3.50
2018-04-19T13:36:30.864Z,3.57
2018-04-19T13:38:59.150Z,3.80
2018-04-19T13:41:27.438Z,3.43
2018-04-19T13:43:55.715Z,3.53
2018-04-19T13:46:23.992Z,3.30
2018-04-19T13:48:52.270Z,3.33
2018-04-19T13:51:20.550Z,2.97
2018-04-19T13:53:48.830Z,3.37
2018-04-19T13:56:18.086Z,3.27
2018-04-19T13:58:46.615Z,3.83
2018-04-19T14:01:14.891Z,3.97
2018-04-19T14:03:43.158Z,3.10
2018-04-19T14:06:11.447Z,2.90
2018-04-19T14:08:39.724Z,3.17
2018-04-19T14:11:08.003Z,3.23
2018-04-19T14:13:36.291Z,3.50
2018-04-19T14:16:05.635Z,3.70
2018-04-19T14:18:33.934Z,3.50
2018-04-19T14:21:03.150Z,3.50
2018-04-19T14:23:31.438Z,3.40
2018-04-19T14:25:59.739Z,3.33
2018-04-19T14:28:27.984Z,3.33
2018-04-19T14:30:56.258Z,3.40
2018-04-19T14:33:25.498Z,3.43
2018-04-19T14:35:54.718Z,3.57
2018-04-19T14:38:23.034Z,3.53
2018-04-19T14:40:51.294Z,3.50
2018-04-19T14:43:20.502Z,3.30
2018-04-19T14:45:48.792Z,3.70
2018-04-19T14:48:17.084Z,3.10
2018-04-19T14:50:45.393Z,3.50
2018-04-19T14:53:13.683Z,3.70
2018-04-19T14:55:41.966Z,3.33
2018-04-19T14:58:10.250Z,3.80
2018-04-19T15:00:38.561Z,3.30
2018-04-19T15:03:06.828Z,4.00
2018-04-19T15:05:35.110Z,3.40
2018-04-19T15:08:03.394Z,3.50
2018-04-19T15:10:31.664Z,4.03
2018-04-19T15:12:59.949Z,3.60
2018-04-19T15:15:28.214Z,3.40
2018-04-19T15:17:56.494Z,3.33
2018-04-19T15:20:24.777Z,3.50
2018-04-19T15:22:53.058Z,3.70
2018-04-19T15:25:21.358Z,3.60
2018-04-19T15:27:49.658Z,3.50
2018-04-19T15:30:17.913Z,3.87
2018-04-19T15:32:46.212Z,3.80
2018-04-19T15:35:14.491Z,3.93
2018-04-19T15:37:42.771Z,3.63
2018-04-19T15:40:11.058Z,3.60
2018-04-19T15:42:39.342Z,3.80
2018-04-19T15:45:07.626Z,3.50
2018-04-19T15:47:35.908Z,3.80
2018-04-19T15:50:04.216Z,3.70
2018-04-19T15:52:32.479Z,3.53
2018-04-19T15:55:00.839Z,3.83
2018-04-19T15:57:29.065Z,3.60
2018-04-19T15:59:57.353Z,3.50
2018-04-19T16:02:25.633Z,3.57
2018-04-19T16:04:53.930Z,3.90
2018-04-19T16:07:22.189Z,4.33
2018-04-19T16:09:50.474Z,3.67
2018-04-19T16:12:18.746Z,3.77
2018-04-19T16:14:47.058Z,4.03
2018-04-19T16:17:15.330Z,3.80
2018-04-19T16:19:43.610Z,4.07
2018-04-19T16:22:11.901Z,3.60
2018-04-19T16:24:40.175Z,4.00
2018-04-19T16:27:08.454Z,4.10
2018-04-19T16:29:36.726Z,3.70
2018-04-19T16:32:05.010Z,4.30
2018-04-19T16:34:34.582Z,3.77
2018-04-19T16:37:02.857Z,4.30
2018-04-19T16:39:31.206Z,3.97
2018-04-19T16:41:59.522Z,4.03
2018-04-19T16:44:27.756Z,4.20
2018-04-19T16:46:56.034Z,3.80
2018-04-19T16:49:24.310Z,4.07
2018-04-19T16:51:52.606Z,3.73
2018-04-19T16:54:22.466Z,4.20
2018-04-19T16:56:52.712Z,3.57
2018-04-19T16:59:21.007Z,3.73
2018-04-19T17:01:49.298Z,3.90
2018-04-19T17:04:17.554Z,3.93
2018-04-19T17:06:45.849Z,4.00
2018-04-19T17:09:14.126Z,3.93
2018-04-19T17:11:42.395Z,3.97
2018-04-19T17:14:10.683Z,3.93
2018-04-19T17:16:39.590Z,3.63
2018-04-19T17:19:07.882Z,3.53
2018-04-19T17:21:36.159Z,3.60
2018-04-19T17:24:04.450Z,3.90
2018-04-19T17:26:32.726Z,3.50
2018-04-19T17:29:01.016Z,3.27
2018-04-19T17:31:29.287Z,3.80
2018-04-19T17:33:57.576Z,3.60
2018-04-19T17:36:25.854Z,3.40
2018-04-19T17:38:54.138Z,3.40
2018-04-19T17:41:22.407Z,3.40
2018-04-19T17:43:50.693Z,3.63
2018-04-19T17:46:18.971Z,3.80
2018-04-19T17:48:47.254Z,3.00
2018-04-19T17:51:15.517Z,3.17
2018-04-19T17:53:43.812Z,3.40
2018-04-19T17:56:12.070Z,3.13
2018-04-19T17:58:40.348Z,3.40
2018-04-19T18:01:08.631Z,3.03
2018-04-19T18:03:36.902Z,3.30
2018-04-19T18:06:06.125Z,3.60
2018-04-19T18:08:34.401Z,4.40
2018-04-19T18:11:02.677Z,4.10
2018-04-19T18:13:30.950Z,3.13
2018-04-19T18:15:59.235Z,3.47
2018-04-19T18:18:27.502Z,3.47
2018-04-19T18:20:55.788Z,3.30
2018-04-19T18:23:24.055Z,2.97
2018-04-19T18:25:52.346Z,3.73
2018-04-19T18:28:20.646Z,3.40
2018-04-19T18:30:48.939Z,3.90
2018-04-19T18:33:17.195Z,2.93
2018-04-19T18:35:45.482Z,3.90
2018-04-19T18:38:13.755Z,3.50
2018-04-19T18:40:42.030Z,3.60
2018-04-19T18:43:10.329Z,3.90
2018-04-19T18:45:38.594Z,4.03
2018-04-19T18:48:06.884Z,4.20
2018-04-19T18:50:35.169Z,5.33
2018-04-19T18:53:03.452Z,4.10
2018-04-19T18:55:33.659Z,4.77
2018-04-19T18:58:01.966Z,3.90
2018-04-19T19:00:30.258Z,4.43
2018-04-19T19:02:58.552Z,5.30
2018-04-19T19:05:26.838Z,3.97
2018-04-19T19:07:55.126Z,4.50
2018-04-19T19:10:23.409Z,4.40
2018-04-19T19:12:51.683Z,5.00
2018-04-19T19:18:49.451Z,4.20
2018-04-19T19:21:17.718Z,4.10
2018-04-19T19:23:46.011Z,4.30
2018-04-19T19:26:14.300Z,5.93
2018-04-19T19:28:42.579Z,4.47
2018-04-19T19:31:10.858Z,4.60
2018-04-19T19:33:39.142Z,4.80
2018-04-19T19:36:07.423Z,5.00
2018-04-19T19:38:35.731Z,5.73
2018-04-19T19:41:03.998Z,6.00
2018-04-19T19:43:32.290Z,4.87
2018-04-19T19:46:00.609Z,5.50
2018-04-19T19:48:28.895Z,4.27
2018-04-19T19:50:57.189Z,3.50
2018-04-19T19:53:26.057Z,4.33
2018-04-19T19:55:54.382Z,4.60
2018-04-19T19:58:22.659Z,5.07
2018-04-19T20:00:50.958Z,4.67
2018-04-19T20:03:20.247Z,6.73
2018-04-19T20:05:48.528Z,4.50
2018-04-19T20:08:16.812Z,6.23
2018-04-19T20:10:45.115Z,3.83
2018-04-19T20:13:14.327Z,5.60
2018-04-19T20:15:42.668Z,4.33
2018-04-19T20:18:13.578Z,6.30
2018-04-19T20:20:43.786Z,5.73
2018-04-19T20:23:12.103Z,4.53
2018-04-19T20:25:40.407Z,4.10
2018-04-19T20:28:08.897Z,4.10
2018-04-19T20:30:37.360Z,4.70
2018-04-19T20:33:05.647Z,4.77
2018-04-19T20:35:33.963Z,3.73
2018-04-19T20:38:02.198Z,5.23
2018-04-19T20:40:30.491Z,4.30
2018-04-19T20:42:58.778Z,5.73
2018-04-19T20:45:28.065Z,4.30
2018-04-19T20:47:56.358Z,4.83
2018-04-19T20:50:24.639Z,5.07
2018-04-19T20:52:52.923Z,4.60
2018-04-19T20:55:21.199Z,4.73
2018-04-19T20:57:49.503Z,4.50
2018-04-19T21:00:18.919Z,4.60
2018-04-19T21:02:47.540Z,4.60
2018-04-19T21:05:15.859Z,4.60
2018-04-19T21:07:45.146Z,5.13
2018-04-19T21:10:13.391Z,4.20
2018-04-19T21:12:41.665Z,4.27
2018-04-19T21:15:09.988Z,4.37
2018-04-19T21:17:38.276Z,4.90
2018-04-19T21:20:06.562Z,4.97
2018-04-19T21:22:34.846Z,5.20
2018-04-19T21:25:03.151Z,5.27
2018-04-19T21:27:31.411Z,4.60
2018-04-19T21:29:59.696Z,5.10
2018-04-19T21:32:28.281Z,5.43
2018-04-19T21:34:57.411Z,5.03
2018-04-19T21:37:25.689Z,4.33
2018-04-19T21:39:53.974Z,5.40
2018-04-19T21:42:22.246Z,5.60
2018-04-19T21:44:50.534Z,5.50
2018-04-19T21:47:18.814Z,5.00
2018-04-19T21:49:47.114Z,5.23
2018-04-19T21:52:15.390Z,5.27
2018-04-19T21:54:43.934Z,5.27
2018-04-19T21:57:12.210Z,5.40
2018-04-19T21:59:40.482Z,5.43
2018-04-19T22:02:08.798Z,4.80
2018-04-19T22:04:37.078Z,5.40
2018-04-19T22:07:05.397Z,5.30
2018-04-19T22:09:33.658Z,5.37
2018-04-19T22:12:01.941Z,4.80
2018-04-19T22:14:30.222Z,5.20
2018-04-19T22:16:58.522Z,5.43
2018-04-19T22:19:26.807Z,5.33
2018-04-19T22:21:55.093Z,5.73
2018-04-19T22:24:23.410Z,4.90
2018-04-19T22:26:51.701Z,5.07
2018-04-19T22:29:19.969Z,5.10
2018-04-19T22:31:48.254Z,4.87
2018-04-19T22:34:16.524Z,5.80
2018-04-19T22:36:44.805Z,5.67
2018-04-19T22:39:13.081Z,5.23
2018-04-19T22:41:41.643Z,5.70
2018-04-19T22:44:09.917Z,5.33
2018-04-19T22:46:38.218Z,5.07
2018-04-19T22:49:06.514Z,5.20
2018-04-19T22:51:34.794Z,5.23
2018-04-19T22:54:03.082Z,5.70
2018-04-19T22:56:31.359Z,5.60
2018-04-19T22:58:59.646Z,5.50
2018-04-19T23:01:27.933Z,6.13
2018-04-19T23:03:56.222Z,5.87
2018-04-19T23:06:24.502Z,5.80
2018-04-19T23:08:52.786Z,6.50
2018-04-19T23:11:21.062Z,6.10
2018-04-19T23:13:49.346Z,5.47
2018-04-19T23:16:17.625Z,5.60
2018-04-19T23:18:45.913Z,6.07
2018-04-19T23:21:14.189Z,5.77
2018-04-19T23:23:42.491Z,5.10
2018-04-19T23:26:10.765Z,5.83
2018-04-19T23:28:39.038Z,5.03
2018-04-19T23:31:07.326Z,5.73
2018-04-19T23:33:35.618Z,5.30
2018-04-19T23:36:03.890Z,4.83
2018-04-19T23:38:32.199Z,5.17
2018-04-19T23:41:00.450Z,4.90
2018-04-19T23:43:28.747Z,5.97
2018-04-19T23:45:57.037Z,5.50
2018-04-19T23:48:25.313Z,5.97
2018-04-19T23:50:53.631Z,6.17
2018-04-19T23:53:21.906Z,6.20
2018-04-19T23:55:50.199Z,6.20
2018-04-19T23:58:18.478Z,5.93
